KMCI/MCI METAR and TAF weather

Enter ICAO airport designator
Station Type Date Time Source
KMCI METAR 2021/01/16 01:53 UTC NOAA

KMCI 160153Z 31010G22KT 5SM -SN BLSN OVC010 00/M02 A2981 RMK AO2 SNB48 SLP100 P0000 I1000 T00001017


Station Type Date Time Source
KMCI Decoded METAR 2021/01/16 01:53 UTC NOAA

KANSAS CITY INTERNATIONAL AIRPORT, MO, United States (KMCI) 39-18N 94-44W 320M
Jan 15, 2021 - 08:53 PM EST / 2021.01.16 0153 UTC
Wind: from the NW (310 degrees) at 12 MPH (10 KT) gusting to 25 MPH (22 KT):0
Visibility: 5 mile(s):0
Sky conditions: overcast
Weather: light snow; blowing snow
Precipitation last hour: A trace
Temperature: 32.0 F (0.0 C)
Windchill: 23 F (-5 C):1
Dew Point: 28.9 F (-1.7 C)
Relative Humidity: 88%
Pressure (altimeter): 29.81 in. Hg (1009 hPa)
ob: KMCI 160153Z 31010G22KT 5SM -SN BLSN OVC010 00/M02 A2981 RMK AO2 SNB48 SLP100 P0000 I1000 T00001017
cycle: 2

Station Type Date Time Source
KMCI TAF 2021/01/16 02:06 UTC NOAA

TAF
AMD KMCI 160204Z 1602/1624 31018G25KT 6SM -SHSN BR OVC015
TEMPO 1602/1604 3SM -SN OVC010
FM160400 32014G24KT P6SM BKN015
FM160700 32012KT P6SM BKN015
FM162100 30010KT P6SM SCT030

Example: see airport list